Terminal Aerodrome Forecast
Issued by NWS Flagstaff, AZ

Home | Current Version | Previous Version | Text Only | Print | Product List | Glossary On
Versions: 1 2 3 4 5 6 7 8 9 10 11 12 13 14 15
000
FTUS45 KFGZ 250000 AAA
TAFFLG
TAF AMD
KFLG 250028Z 2500/2524 VRB06KT P6SM BKN100
      TEMPO 2500/2503 6SM -TSRA BKN060 BKN090CB
     FM251800 23007KT P6SM BKN080 PROB30 2518/2524 -TSRA BKN080CB=

USA.gov is the U.S. government's official web portal to all federal, state and local government web resources and services.